createdAt,value
2018-12-14T00:02:56.082Z,25.77
2018-12-14T00:08:00.253Z,26.47
2018-12-14T00:13:02.553Z,25.93
2018-12-14T00:18:04.844Z,25.10
2018-12-14T00:23:07.977Z,25.23
2018-12-14T00:28:10.637Z,25.43
2018-12-14T00:33:12.813Z,24.97
2018-12-14T00:38:14.977Z,23.87
2018-12-14T00:43:17.129Z,22.07
2018-12-14T00:48:19.199Z,24.23
2018-12-14T00:53:21.233Z,24.37
2018-12-14T00:58:23.394Z,24.27
2018-12-14T01:03:25.576Z,24.47
2018-12-14T01:08:27.739Z,23.40
2018-12-14T01:13:30.145Z,23.80
2018-12-14T01:18:32.445Z,23.53
2018-12-14T01:23:34.637Z,23.07
2018-12-14T01:28:36.702Z,24.67
2018-12-14T01:33:38.774Z,25.20
2018-12-14T01:38:47.822Z,23.37
2018-12-14T01:43:49.993Z,23.87
2018-12-14T01:48:52.166Z,24.37
2018-12-14T01:53:54.237Z,24.83
2018-12-14T01:58:56.334Z,24.53
2018-12-14T02:03:58.764Z,25.50
2018-12-14T02:09:01.874Z,25.03
2018-12-14T02:14:07.620Z,28.37
2018-12-14T02:19:10.089Z,26.23
2018-12-14T02:24:12.561Z,28.07
2018-12-14T02:29:14.622Z,28.23
2018-12-14T02:34:17.096Z,28.70
2018-12-14T02:39:19.584Z,29.23
2018-12-14T02:44:21.646Z,28.77
2018-12-14T02:49:23.697Z,28.13
2018-12-14T02:54:25.761Z,29.03
2018-12-14T02:59:27.870Z,27.37
2018-12-14T03:04:29.907Z,28.50
2018-12-14T03:09:32.666Z,28.43
2018-12-14T03:14:34.933Z,26.07
2018-12-14T03:19:37.093Z,25.03
2018-12-14T03:24:39.306Z,27.33
2018-12-14T03:29:48.582Z,24.87
2018-12-14T03:34:50.614Z,25.93
2018-12-14T03:39:52.677Z,25.80
2018-12-14T03:44:54.830Z,24.40
2018-12-14T03:49:56.878Z,23.43
2018-12-14T03:54:58.933Z,24.27
2018-12-14T04:00:01.012Z,24.57
2018-12-14T04:05:03.263Z,22.97
2018-12-14T04:10:05.980Z,23.33
2018-12-14T04:15:08.298Z,22.70
2018-12-14T04:20:10.850Z,22.27
2018-12-14T04:25:13.171Z,21.17
2018-12-14T04:30:15.348Z,22.33
2018-12-14T04:35:17.729Z,22.40
2018-12-14T04:40:20.029Z,20.57
2018-12-14T04:45:22.281Z,21.00
2018-12-14T04:50:24.442Z,20.50
2018-12-14T04:55:26.662Z,22.87
2018-12-14T05:00:28.806Z,22.90
2018-12-14T05:05:31.231Z,22.40
2018-12-14T05:10:33.730Z,22.40
2018-12-14T05:15:36.015Z,23.87
2018-12-14T05:20:38.178Z,24.53
2018-12-14T05:25:40.313Z,23.73
2018-12-14T05:30:42.393Z,23.87
2018-12-14T05:35:44.544Z,23.90
2018-12-14T05:40:46.720Z,25.87
2018-12-14T05:45:48.989Z,26.20
2018-12-14T05:50:51.157Z,24.40
2018-12-14T05:55:53.423Z,24.67
2018-12-14T06:00:55.650Z,24.80
2018-12-14T06:05:57.821Z,24.10
2018-12-14T06:11:00.049Z,24.63
2018-12-14T06:16:02.217Z,25.43
2018-12-14T06:21:04.504Z,25.73
2018-12-14T06:26:06.708Z,24.93
2018-12-14T06:31:08.749Z,26.23
2018-12-14T06:36:10.823Z,26.43
2018-12-14T06:41:12.874Z,27.50
2018-12-14T06:46:15.055Z,27.83
2018-12-14T06:51:17.393Z,28.57
2018-12-14T06:56:19.469Z,29.47
2018-12-14T07:01:21.522Z,28.30
2018-12-14T07:06:23.697Z,29.63
2018-12-14T07:11:25.778Z,29.93
2018-12-14T07:16:27.937Z,29.23
2018-12-14T07:21:30.126Z,30.27
2018-12-14T07:26:32.773Z,31.47
2018-12-14T07:31:34.850Z,32.13
2018-12-14T07:36:37.146Z,32.33
2018-12-14T07:41:39.445Z,31.27
2018-12-14T07:46:41.490Z,32.30
2018-12-14T07:51:43.661Z,31.80
2018-12-14T07:56:45.850Z,32.03
2018-12-14T08:01:48.047Z,31.70
2018-12-14T08:06:50.145Z,32.07
2018-12-14T08:11:52.345Z,32.77
2018-12-14T08:16:54.385Z,31.67
2018-12-14T08:21:56.454Z,30.57
2018-12-14T08:26:58.578Z,30.43
2018-12-14T08:32:00.650Z,31.67
2018-12-14T08:37:02.937Z,30.03
2018-12-14T08:42:05.221Z,28.13
2018-12-14T08:47:07.377Z,29.63
2018-12-14T08:52:09.533Z,30.43
2018-12-14T08:57:11.750Z,28.90
2018-12-14T09:02:14.060Z,28.83
2018-12-14T09:07:16.402Z,28.13
2018-12-14T09:12:18.580Z,27.00
2018-12-14T09:17:20.865Z,27.27
2018-12-14T09:22:23.398Z,27.50
2018-12-14T09:27:26.492Z,24.93
2018-12-14T09:32:28.754Z,25.43
2018-12-14T09:37:30.934Z,24.33
2018-12-14T09:42:33.229Z,21.73
2018-12-14T09:47:35.394Z,22.60
2018-12-14T09:52:37.473Z,24.13
2018-12-14T09:57:39.681Z,24.57
2018-12-14T10:02:49.846Z,21.43
2018-12-14T10:07:52.129Z,22.70
2018-12-14T10:12:54.329Z,21.37
2018-12-14T10:17:56.431Z,22.27
2018-12-14T10:22:58.607Z,21.87
2018-12-14T10:28:00.801Z,20.70
2018-12-14T10:33:02.958Z,22.40
2018-12-14T10:38:05.013Z,21.00
2018-12-14T10:43:07.398Z,20.83
2018-12-14T10:48:09.553Z,21.57
2018-12-14T10:53:12.145Z,20.17
2018-12-14T10:58:14.569Z,20.27
2018-12-14T11:03:16.721Z,19.93
2018-12-14T11:08:18.781Z,20.57
2018-12-14T11:13:21.429Z,21.00
2018-12-14T11:18:43.294Z,21.40
2018-12-14T11:23:45.347Z,20.20
2018-12-14T11:28:47.518Z,21.00
2018-12-14T11:33:49.699Z,33.50
2018-12-14T11:38:51.769Z,21.90
2018-12-14T11:43:53.845Z,19.93
2018-12-14T11:48:56.017Z,20.50
2018-12-14T11:53:58.165Z,19.23
2018-12-14T11:59:00.586Z,18.67
2018-12-14T12:04:02.974Z,22.07
2018-12-14T12:09:08.278Z,20.17
2018-12-14T12:14:11.538Z,22.30
2018-12-14T12:19:13.606Z,23.13
2018-12-14T12:24:15.797Z,27.30
2018-12-14T12:29:18.005Z,23.80
2018-12-14T12:34:20.075Z,24.43
2018-12-14T12:39:22.210Z,24.80
2018-12-14T12:44:24.497Z,24.03
2018-12-14T12:49:26.791Z,25.07
2018-12-14T12:54:28.969Z,24.80
2018-12-14T12:59:31.470Z,25.43
2018-12-14T13:04:33.693Z,23.50
2018-12-14T13:09:35.857Z,26.50
2018-12-14T13:14:40.183Z,26.00
2018-12-14T13:19:42.246Z,27.13
2018-12-14T13:24:44.313Z,26.30
2018-12-14T13:29:46.385Z,26.23
2018-12-14T13:34:48.436Z,26.03
2018-12-14T13:39:50.670Z,27.80
2018-12-14T13:44:54.045Z,26.47
2018-12-14T13:49:56.250Z,25.50
2018-12-14T13:54:58.405Z,27.40
2018-12-14T14:00:00.625Z,26.87
2018-12-14T14:05:09.830Z,23.53
2018-12-14T14:10:12.329Z,27.07
2018-12-14T14:15:20.709Z,25.33
2018-12-14T14:20:18.585Z,25.97
2018-12-14T14:25:20.858Z,27.10
2018-12-14T14:30:25.246Z,24.40
2018-12-14T14:35:27.586Z,25.73
2018-12-14T14:40:29.737Z,26.27
2018-12-14T14:45:38.775Z,27.07
2018-12-14T14:50:40.881Z,25.30
2018-12-14T14:55:43.041Z,26.30
2018-12-14T15:00:45.103Z,26.80
2018-12-14T15:05:47.593Z,27.63
2018-12-14T15:10:49.884Z,27.53
2018-12-14T15:15:52.182Z,28.57
2018-12-14T15:20:54.572Z,27.57
2018-12-14T15:25:56.737Z,28.10
2018-12-14T15:30:59.023Z,30.33
2018-12-14T15:36:01.255Z,29.90
2018-12-14T15:41:03.534Z,29.00
2018-12-14T15:46:05.786Z,30.17
2018-12-14T15:51:07.878Z,30.70
2018-12-14T15:56:10.029Z,29.17
2018-12-14T16:01:12.285Z,28.43
2018-12-14T16:06:14.513Z,29.37
2018-12-14T16:11:16.606Z,28.93
2018-12-14T16:16:18.753Z,30.17
2018-12-14T16:21:21.042Z,29.67
2018-12-14T16:26:23.746Z,30.13
2018-12-14T16:31:26.542Z,30.33
2018-12-14T16:36:28.661Z,31.60
2018-12-14T16:41:30.740Z,33.23
2018-12-14T16:46:33.029Z,34.13
2018-12-14T16:51:35.565Z,30.93
2018-12-14T16:56:37.666Z,33.57
2018-12-14T17:01:47.661Z,33.77
2018-12-14T17:06:50.199Z,35.80
2018-12-14T17:11:52.492Z,35.07
2018-12-14T17:16:54.814Z,32.40
2018-12-14T17:21:57.051Z,31.83
2018-12-14T17:26:59.813Z,33.37
2018-12-14T17:32:02.528Z,31.43
2018-12-14T17:37:05.937Z,33.83
2018-12-14T17:42:10.159Z,33.73
2018-12-14T17:47:12.782Z,34.30
2018-12-14T17:52:15.217Z,33.43
2018-12-14T17:57:17.372Z,33.33
2018-12-14T18:02:19.550Z,33.43
2018-12-14T18:07:21.894Z,35.73
2018-12-14T18:12:25.005Z,35.10
2018-12-14T18:17:27.221Z,35.33
2018-12-14T18:22:29.645Z,37.07
2018-12-14T18:27:34.625Z,35.47
2018-12-14T18:32:36.785Z,38.50
2018-12-14T18:37:38.914Z,36.53
2018-12-14T18:42:41.882Z,37.73
2018-12-14T18:47:45.052Z,36.77
2018-12-14T18:52:47.129Z,38.67
2018-12-14T18:57:49.376Z,35.37
2018-12-14T19:02:51.450Z,36.63
2018-12-14T19:07:53.823Z,36.83
2018-12-14T19:12:55.810Z,37.73
2018-12-14T19:17:57.959Z,38.93
2018-12-14T19:23:00.146Z,38.90
2018-12-14T19:28:02.353Z,36.43
2018-12-14T19:33:11.486Z,38.60
2018-12-14T19:38:13.653Z,37.63
2018-12-14T19:43:15.749Z,38.17
2018-12-14T19:48:17.790Z,37.23
2018-12-14T19:53:19.854Z,37.80
2018-12-14T19:58:22.109Z,40.40
2018-12-14T20:03:25.379Z,39.73
2018-12-14T20:08:27.737Z,38.40
2018-12-14T20:13:30.246Z,38.33
2018-12-14T20:18:32.449Z,37.60
2018-12-14T20:23:35.602Z,36.10
2018-12-14T20:28:37.899Z,39.30
2018-12-14T20:33:40.055Z,39.07
2018-12-14T20:38:42.101Z,39.83
2018-12-14T20:43:44.302Z,38.17
2018-12-14T20:48:46.540Z,39.70
2018-12-14T20:53:49.995Z,40.13
2018-12-14T20:58:52.274Z,40.20
2018-12-14T21:03:54.509Z,37.43
2018-12-14T21:08:56.674Z,38.50
2018-12-14T21:13:59.173Z,38.57
2018-12-14T21:19:01.669Z,38.43
2018-12-14T21:24:04.270Z,40.07
2018-12-14T21:29:07.546Z,38.53
2018-12-14T21:34:09.981Z,38.43
2018-12-14T21:39:12.315Z,38.23
2018-12-14T21:44:14.577Z,37.47
2018-12-14T21:49:17.002Z,39.10
2018-12-14T21:54:19.313Z,39.63
2018-12-14T21:59:21.394Z,40.03
2018-12-14T22:04:23.581Z,40.20
2018-12-14T22:09:26.639Z,37.90
2018-12-14T22:14:28.757Z,38.63
2018-12-14T22:19:30.920Z,40.23
2018-12-14T22:24:33.377Z,38.77
2018-12-14T22:29:35.553Z,38.27
2018-12-14T22:34:37.713Z,38.27
2018-12-14T22:39:40.197Z,39.57
2018-12-14T22:44:42.235Z,37.70
2018-12-14T22:49:44.442Z,39.07
2018-12-14T22:54:46.618Z,37.77
2018-12-14T22:59:48.796Z,39.00
2018-12-14T23:04:50.890Z,39.80
2018-12-14T23:09:53.109Z,41.67
2018-12-14T23:14:55.256Z,41.47
2018-12-14T23:19:57.313Z,39.33
2018-12-14T23:24:59.593Z,41.07
2018-12-14T23:30:02.247Z,39.03
2018-12-14T23:35:05.314Z,36.03
2018-12-14T23:40:07.463Z,38.70
2018-12-14T23:45:09.866Z,36.70
2018-12-14T23:50:12.690Z,37.80
2018-12-14T23:55:14.733Z,37.30
